createdAt,value
2019-02-06T00:00:51.771Z,112.87
2019-02-06T00:03:22.445Z,133.60
2019-02-06T00:05:51.888Z,101.73
2019-02-06T00:08:21.341Z,97.23
2019-02-06T00:10:50.732Z,104.37
2019-02-06T00:13:20.134Z,77.97
2019-02-06T00:15:49.928Z,87.60
2019-02-06T00:18:19.399Z,81.20
2019-02-06T00:20:49.035Z,93.37
2019-02-06T00:23:18.390Z,110.93
2019-02-06T00:25:48.421Z,79.63
2019-02-06T00:28:17.883Z,96.90
2019-02-06T00:30:48.663Z,87.90
2019-02-06T00:33:18.071Z,87.10
2019-02-06T00:35:47.437Z,76.90
2019-02-06T00:38:16.791Z,79.47
2019-02-06T00:40:46.160Z,70.83
2019-02-06T00:43:15.590Z,96.97
2019-02-06T00:45:45.865Z,79.00
2019-02-06T00:48:15.155Z,72.53
2019-02-06T00:50:44.817Z,87.17
2019-02-06T00:53:14.171Z,84.67
2019-02-06T00:55:43.528Z,77.57
2019-02-06T00:58:12.891Z,67.20
2019-02-06T01:00:42.767Z,74.97
2019-02-06T01:03:12.228Z,90.13
2019-02-06T01:05:41.586Z,74.63
2019-02-06T01:08:11.188Z,81.00
2019-02-06T01:10:40.562Z,79.73
2019-02-06T01:13:09.935Z,81.53
2019-02-06T01:15:39.613Z,70.33
2019-02-06T01:18:08.989Z,72.27
2019-02-06T01:20:40.100Z,65.97
2019-02-06T01:23:09.461Z,60.90
2019-02-06T01:25:38.839Z,67.33
2019-02-06T01:28:08.748Z,65.17
2019-02-06T01:30:49.310Z,63.77
2019-02-06T01:33:18.672Z,74.30
2019-02-06T01:35:49.990Z,70.43
2019-02-06T01:38:19.058Z,69.27
2019-02-06T01:40:48.452Z,66.70
2019-02-06T01:43:18.215Z,69.43
2019-02-06T01:45:47.922Z,73.60
2019-02-06T01:48:17.288Z,63.70
2019-02-06T01:50:46.631Z,64.57
2019-02-06T01:53:16.003Z,52.67
2019-02-06T01:55:45.365Z,72.93
2019-02-06T01:58:14.764Z,66.73
2019-02-06T02:00:44.103Z,89.93
2019-02-06T02:03:13.450Z,63.97
2019-02-06T02:05:42.821Z,63.03
2019-02-06T02:08:12.418Z,65.50
2019-02-06T02:10:41.825Z,60.00
2019-02-06T02:13:11.175Z,62.37
2019-02-06T02:15:41.724Z,68.53
2019-02-06T02:18:11.415Z,66.00
2019-02-06T02:20:40.815Z,61.90
2019-02-06T02:23:10.159Z,63.30
2019-02-06T02:25:39.507Z,56.63
2019-02-06T02:28:08.900Z,90.23
2019-02-06T02:30:45.349Z,59.60
2019-02-06T02:33:14.742Z,60.97
2019-02-06T02:35:44.210Z,52.17
2019-02-06T02:38:13.565Z,66.17
2019-02-06T02:40:42.968Z,66.87
2019-02-06T02:43:12.721Z,59.13
2019-02-06T02:45:42.090Z,65.90
2019-02-06T02:48:11.439Z,58.30
2019-02-06T02:50:40.900Z,65.47
2019-02-06T02:53:10.385Z,57.63
2019-02-06T02:55:39.738Z,59.30
2019-02-06T02:58:09.361Z,71.27
2019-02-06T03:01:06.947Z,66.17
2019-02-06T03:03:43.172Z,56.97
2019-02-06T03:06:12.955Z,58.47
2019-02-06T03:08:42.317Z,57.67
2019-02-06T03:11:12.435Z,61.83
2019-02-06T03:13:41.784Z,58.23
2019-02-06T03:16:11.151Z,53.53
2019-02-06T03:18:40.497Z,57.00
2019-02-06T03:21:10.149Z,54.37
2019-02-06T03:23:39.735Z,55.37
2019-02-06T03:26:09.092Z,51.93
2019-02-06T03:28:38.512Z,59.73
2019-02-06T03:31:07.862Z,56.37
2019-02-06T03:33:37.228Z,55.57
2019-02-06T03:36:06.934Z,60.80
2019-02-06T03:38:36.285Z,57.37
2019-02-06T03:41:06.067Z,53.03
2019-02-06T03:43:35.458Z,63.37
2019-02-06T03:46:05.225Z,65.17
2019-02-06T03:48:34.577Z,57.67
2019-02-06T03:51:04.378Z,56.10
2019-02-06T03:53:33.731Z,54.57
2019-02-06T03:56:03.351Z,49.23
2019-02-06T03:58:32.716Z,50.00
2019-02-06T04:01:02.259Z,54.10
2019-02-06T04:03:32.177Z,52.60
2019-02-06T04:06:02.017Z,54.60
2019-02-06T04:08:31.434Z,48.47
2019-02-06T04:11:00.836Z,49.87
2019-02-06T04:13:31.039Z,52.87
2019-02-06T04:16:00.414Z,54.40
2019-02-06T04:18:29.784Z,48.47
2019-02-06T04:20:59.350Z,47.97
2019-02-06T04:23:28.722Z,39.20
2019-02-06T04:25:58.097Z,54.50
2019-02-06T04:28:27.439Z,58.00
2019-02-06T04:30:56.816Z,49.00
2019-02-06T04:33:26.200Z,72.13
2019-02-06T04:35:55.984Z,91.10
2019-02-06T04:38:25.325Z,57.20
2019-02-06T04:40:54.710Z,59.97
2019-02-06T04:43:24.075Z,70.20
2019-02-06T04:45:53.428Z,66.43
2019-02-06T04:48:23.253Z,53.13
2019-02-06T04:50:53.004Z,49.23
2019-02-06T04:53:22.365Z,42.93
2019-02-06T04:55:51.769Z,48.17
2019-02-06T04:58:21.113Z,54.37
2019-02-06T05:00:50.394Z,67.57
2019-02-06T05:03:19.752Z,61.43
2019-02-06T05:05:49.441Z,68.83
2019-02-06T05:08:18.808Z,62.90
2019-02-06T05:10:48.153Z,63.77
2019-02-06T05:13:18.351Z,53.30
2019-02-06T05:15:47.700Z,48.67
2019-02-06T05:18:17.050Z,44.50
2019-02-06T05:20:46.363Z,45.60
2019-02-06T05:23:15.730Z,71.50
2019-02-06T05:25:45.064Z,49.87
2019-02-06T05:28:14.431Z,48.17
2019-02-06T05:30:43.800Z,90.60
2019-02-06T05:33:13.160Z,56.87
2019-02-06T05:35:42.622Z,42.60
2019-02-06T05:38:11.960Z,48.43
2019-02-06T05:40:41.232Z,41.23
2019-02-06T05:43:10.592Z,50.80
2019-02-06T05:45:39.947Z,44.47
2019-02-06T05:48:09.312Z,52.83
2019-02-06T05:50:38.674Z,53.97
2019-02-06T05:53:08.994Z,50.50
2019-02-06T05:55:38.351Z,56.63
2019-02-06T05:58:07.703Z,52.60
2019-02-06T06:00:42.089Z,53.60
2019-02-06T06:03:11.425Z,63.57
2019-02-06T06:05:40.782Z,52.67
2019-02-06T06:08:10.664Z,43.70
2019-02-06T06:10:40.043Z,56.90
2019-02-06T06:13:09.373Z,52.33
2019-02-06T06:15:38.760Z,51.80
2019-02-06T06:18:08.107Z,56.17
2019-02-06T06:20:37.459Z,54.00
2019-02-06T06:23:06.938Z,57.80
2019-02-06T06:25:36.318Z,57.73
2019-02-06T06:28:05.735Z,51.37
2019-02-06T06:30:35.022Z,49.60
2019-02-06T06:33:04.378Z,51.47
2019-02-06T06:35:33.723Z,54.70
2019-02-06T06:38:03.099Z,56.40
2019-02-06T06:40:32.470Z,64.30
2019-02-06T06:43:01.814Z,62.70
2019-02-06T06:45:31.165Z,57.10
2019-02-06T06:48:00.512Z,49.43
2019-02-06T06:50:29.873Z,57.80
2019-02-06T06:52:59.450Z,84.40
2019-02-06T06:55:30.088Z,78.00
2019-02-06T06:57:59.401Z,101.80
2019-02-06T07:00:30.236Z,56.83
2019-02-06T07:03:00.327Z,52.67
2019-02-06T07:05:32.469Z,68.73
2019-02-06T07:08:11.130Z,58.47
2019-02-06T07:10:33.479Z,76.30
2019-02-06T07:13:02.818Z,73.23
2019-02-06T07:15:34.067Z,92.27
2019-02-06T07:18:03.434Z,81.27
2019-02-06T07:20:33.281Z,115.87
2019-02-06T07:23:03.077Z,117.80
2019-02-06T07:25:32.431Z,95.93
2019-02-06T07:28:01.726Z,108.63
2019-02-06T07:30:33.214Z,96.90
2019-02-06T07:33:02.867Z,88.60
2019-02-06T07:35:32.210Z,95.27
2019-02-06T07:38:02.299Z,89.07
2019-02-06T07:40:31.689Z,74.37
2019-02-06T07:43:01.059Z,72.40
2019-02-06T07:45:30.756Z,91.17
2019-02-06T07:48:00.123Z,61.03
2019-02-06T07:50:31.540Z,60.90
2019-02-06T07:53:01.054Z,68.73
2019-02-06T07:55:30.642Z,133.43
2019-02-06T07:58:00.031Z,70.97
2019-02-06T08:00:29.444Z,65.73
2019-02-06T08:02:59.398Z,62.37
2019-02-06T08:05:28.859Z,70.40
2019-02-06T08:07:58.572Z,63.90
2019-02-06T08:10:34.865Z,80.10
2019-02-06T08:13:05.372Z,77.27
2019-02-06T08:15:34.756Z,80.63
2019-02-06T08:18:04.259Z,144.93
2019-02-06T08:20:33.916Z,77.33
2019-02-06T08:23:03.319Z,87.50
2019-02-06T08:25:32.714Z,88.63
2019-02-06T08:28:02.105Z,152.30
2019-02-06T08:30:33.807Z,81.13
2019-02-06T08:33:04.723Z,100.90
2019-02-06T08:35:34.884Z,88.00
2019-02-06T08:38:04.431Z,58.47
2019-02-06T08:40:33.822Z,69.73
2019-02-06T08:43:03.193Z,82.23
2019-02-06T08:45:32.551Z,84.83
2019-02-06T08:50:29.908Z,76.73
2019-02-06T08:52:59.567Z,244.07
2019-02-06T08:55:30.067Z,329.70
2019-02-06T08:57:59.665Z,279.30
2019-02-06T09:00:34.705Z,310.90
2019-02-06T09:03:04.756Z,131.20
2019-02-06T09:05:34.094Z,133.80
2019-02-06T09:08:03.476Z,191.90
2019-02-06T09:10:33.007Z,376.73
2019-02-06T09:13:03.780Z,255.37
2019-02-06T09:15:33.084Z,127.20
2019-02-06T09:18:02.440Z,236.90
2019-02-06T09:20:32.285Z,361.50
2019-02-06T09:23:02.141Z,361.63
2019-02-06T09:25:31.520Z,188.57
2019-02-06T09:28:00.945Z,211.63
2019-02-06T09:30:31.875Z,108.17
2019-02-06T09:33:01.483Z,240.50
2019-02-06T09:35:30.927Z,467.57
2019-02-06T09:38:00.272Z,107.70
2019-02-06T09:40:31.012Z,134.37
2019-02-06T09:43:00.848Z,142.70
2019-02-06T09:45:30.277Z,104.60
2019-02-06T09:47:59.631Z,144.93
2019-02-06T09:50:31.627Z,159.60
2019-02-06T09:53:00.912Z,63.10
2019-02-06T09:55:31.069Z,132.13
2019-02-06T09:58:00.461Z,194.47
2019-02-06T10:00:32.453Z,100.43
2019-02-06T10:03:02.216Z,101.83
2019-02-06T10:05:31.871Z,96.17
2019-02-06T10:08:01.234Z,125.00
2019-02-06T10:10:32.105Z,104.33
2019-02-06T10:13:01.481Z,178.00
2019-02-06T10:15:33.949Z,185.53
2019-02-06T10:18:03.743Z,111.77
2019-02-06T10:20:38.387Z,78.53
2019-02-06T10:23:07.907Z,65.47
2019-02-06T10:25:37.780Z,62.47
2019-02-06T10:28:07.252Z,54.87
2019-02-06T10:30:39.067Z,86.70
2019-02-06T10:33:08.427Z,72.33
2019-02-06T10:35:37.780Z,116.50
2019-02-06T10:38:07.383Z,59.47
2019-02-06T10:40:37.944Z,87.70
2019-02-06T10:43:07.328Z,46.03
2019-02-06T10:45:37.237Z,88.10
2019-02-06T10:48:06.979Z,55.60
2019-02-06T10:50:39.105Z,56.13
2019-02-06T10:53:09.271Z,39.30
2019-02-06T10:55:38.730Z,49.87
2019-02-06T10:58:08.223Z,52.23
2019-02-06T11:00:55.624Z,61.07
2019-02-06T11:03:25.051Z,55.37
2019-02-06T11:05:54.788Z,53.17
2019-02-06T11:08:24.491Z,47.77
2019-02-06T11:10:54.073Z,42.63
2019-02-06T11:13:24.131Z,39.40
2019-02-06T11:15:53.527Z,39.60
2019-02-06T11:18:23.023Z,42.93
2019-02-06T11:20:52.381Z,51.47
2019-02-06T11:23:21.809Z,40.53
2019-02-06T11:25:51.701Z,52.93
2019-02-06T11:28:21.154Z,58.37
2019-02-06T11:30:50.513Z,37.00
2019-02-06T11:33:19.913Z,41.93
2019-02-06T11:35:49.260Z,32.70
2019-02-06T11:38:18.645Z,47.53
2019-02-06T11:40:48.041Z,41.70
2019-02-06T11:43:17.500Z,42.97
2019-02-06T11:45:46.927Z,32.57
2019-02-06T11:48:16.330Z,28.17
2019-02-06T11:50:45.952Z,26.73
2019-02-06T11:53:20.763Z,36.23
2019-02-06T11:55:50.646Z,29.03
2019-02-06T11:58:20.000Z,39.87
2019-02-06T12:01:14.048Z,31.27
2019-02-06T12:03:43.439Z,58.13
2019-02-06T12:06:13.217Z,35.20
2019-02-06T12:08:42.759Z,26.87
2019-02-06T12:11:12.742Z,37.30
2019-02-06T12:13:42.564Z,28.53
2019-02-06T12:16:13.053Z,24.97
2019-02-06T12:18:42.441Z,38.43
2019-02-06T12:21:12.189Z,46.57
2019-02-06T12:23:42.103Z,35.27
2019-02-06T12:26:12.937Z,31.07
2019-02-06T12:28:42.310Z,28.77
2019-02-06T12:31:11.716Z,33.00
2019-02-06T12:33:41.110Z,28.10
2019-02-06T12:36:10.926Z,32.77
2019-02-06T12:38:53.203Z,40.70
2019-02-06T12:41:14.465Z,57.73
2019-02-06T12:43:43.869Z,91.07
2019-02-06T12:46:13.433Z,69.73
2019-02-06T12:48:42.822Z,37.00
2019-02-06T12:51:12.215Z,32.37
2019-02-06T12:53:41.880Z,52.93
2019-02-06T12:56:11.304Z,52.20
2019-02-06T12:58:40.659Z,33.60
2019-02-06T13:01:11.118Z,50.10
2019-02-06T13:03:40.504Z,86.53
2019-02-06T13:06:11.166Z,43.87
2019-02-06T13:08:41.390Z,32.50
2019-02-06T13:11:11.314Z,23.47
2019-02-06T13:13:41.000Z,31.53
2019-02-06T13:16:11.611Z,67.90
2019-02-06T13:18:40.914Z,46.30
2019-02-06T13:21:10.300Z,60.27
2019-02-06T13:23:39.971Z,36.80
2019-02-06T13:26:09.942Z,65.70
2019-02-06T13:28:39.423Z,62.50
2019-02-06T13:31:08.850Z,73.40
2019-02-06T13:33:38.230Z,59.97
2019-02-06T13:36:10.771Z,68.10
2019-02-06T13:38:40.209Z,36.57
2019-02-06T13:41:09.600Z,112.43
2019-02-06T13:43:39.036Z,119.17
2019-02-06T13:46:08.947Z,37.43
2019-02-06T13:48:39.429Z,41.13
2019-02-06T13:51:16.538Z,60.30
2019-02-06T13:53:42.485Z,72.27
2019-02-06T13:56:12.784Z,91.17
2019-02-06T13:58:42.145Z,31.43
2019-02-06T14:01:11.534Z,93.20
2019-02-06T14:03:40.946Z,123.70
2019-02-06T14:06:11.620Z,165.97
2019-02-06T14:08:41.390Z,172.33
2019-02-06T14:11:10.772Z,175.23
2019-02-06T14:13:40.218Z,127.30
2019-02-06T14:16:10.661Z,149.70
2019-02-06T14:18:40.118Z,229.57
2019-02-06T14:21:09.768Z,207.77
2019-02-06T14:24:23.083Z,208.77
2019-02-06T14:27:17.672Z,129.97
2019-02-06T14:30:39.360Z,199.30
2019-02-06T14:33:59.075Z,115.17
2019-02-06T14:36:54.164Z,149.50
2019-02-06T14:39:36.896Z,158.40
2019-02-06T14:42:47.793Z,113.97
2019-02-06T14:46:00.801Z,379.97
2019-02-06T14:49:17.388Z,379.90
2019-02-06T14:52:17.012Z,400.07
2019-02-06T14:55:21.233Z,397.37
2019-02-06T14:58:46.275Z,495.53
2019-02-06T15:02:00.271Z,710.33
2019-02-06T15:04:57.734Z,781.00
2019-02-06T15:08:06.949Z,582.63
2019-02-06T15:10:50.507Z,480.77
2019-02-06T15:14:15.414Z,182.70
2019-02-06T15:17:23.059Z,191.60
2019-02-06T15:20:48.904Z,338.47
2019-02-06T15:23:36.804Z,307.57
2019-02-06T15:26:24.536Z,231.93
2019-02-06T15:29:34.792Z,155.20
2019-02-06T15:32:30.203Z,185.87
2019-02-06T15:35:39.671Z,201.30
2019-02-06T15:38:33.829Z,232.30
2019-02-06T15:41:31.458Z,272.10
2019-02-06T15:44:25.851Z,187.97
2019-02-06T15:47:35.414Z,161.60
2019-02-06T15:50:34.570Z,311.57
2019-02-06T15:53:34.840Z,509.17
2019-02-06T15:56:52.293Z,387.03
2019-02-06T16:00:05.759Z,279.23
2019-02-06T16:02:55.266Z,206.17
2019-02-06T16:06:12.521Z,303.30
2019-02-06T16:09:17.821Z,358.00
2019-02-06T16:12:11.290Z,216.37
2019-02-06T16:14:51.864Z,299.27
2019-02-06T16:18:11.750Z,267.90
2019-02-06T16:21:21.844Z,512.50
2019-02-06T16:24:13.602Z,426.97
2019-02-06T16:27:29.652Z,219.60
2019-02-06T16:30:37.605Z,275.00
2019-02-06T16:33:48.060Z,292.73
2019-02-06T16:36:53.308Z,720.87
2019-02-06T16:40:05.209Z,396.57
2019-02-06T16:43:21.442Z,286.43
2019-02-06T16:46:33.444Z,462.17
2019-02-06T16:49:22.469Z,315.83
2019-02-06T16:52:17.034Z,283.20
2019-02-06T16:55:37.057Z,212.03
2019-02-06T16:58:29.729Z,207.73
2019-02-06T17:01:52.266Z,177.97
2019-02-06T17:04:58.677Z,619.77
2019-02-06T17:08:15.989Z,180.70
2019-02-06T17:11:17.863Z,143.90
2019-02-06T17:14:34.363Z,95.10
2019-02-06T17:17:38.566Z,75.80
2019-02-06T17:20:43.241Z,67.83
2019-02-06T17:23:46.895Z,516.90
2019-02-06T17:26:41.108Z,154.87
2019-02-06T17:29:41.080Z,121.13
2019-02-06T17:32:46.235Z,198.87
2019-02-06T17:35:27.887Z,171.33
2019-02-06T17:38:28.006Z,543.00
2019-02-06T17:41:28.149Z,444.23
2019-02-06T17:44:37.186Z,444.53
2019-02-06T17:47:51.166Z,761.17
2019-02-06T17:51:07.866Z,951.50
2019-02-06T17:53:46.488Z,258.80
2019-02-06T17:56:17.179Z,420.87
2019-02-06T17:58:46.627Z,144.67
2019-02-06T18:01:45.865Z,142.27
2019-02-06T18:04:26.942Z,121.53
2019-02-06T18:09:42.269Z,128.47
2019-02-06T18:12:11.668Z,180.43
2019-02-06T18:14:41.522Z,204.00
2019-02-06T18:17:11.112Z,241.30
2019-02-06T18:19:41.267Z,295.20
2019-02-06T18:22:11.098Z,326.33
2019-02-06T18:24:42.757Z,501.27
2019-02-06T18:27:13.547Z,454.07
2019-02-06T18:29:44.663Z,378.60
2019-02-06T18:32:15.122Z,288.30
2019-02-06T18:34:46.721Z,397.57
2019-02-06T18:37:16.223Z,238.77
2019-02-06T18:39:45.711Z,165.53
2019-02-06T18:42:15.188Z,136.87
2019-02-06T18:44:45.158Z,103.27
2019-02-06T18:47:14.592Z,109.37
2019-02-06T18:49:44.873Z,182.20
2019-02-06T18:52:20.307Z,169.07
2019-02-06T18:54:55.010Z,142.13
2019-02-06T18:57:24.881Z,147.73
2019-02-06T18:59:54.443Z,131.07
2019-02-06T19:02:23.955Z,111.70
2019-02-06T19:04:53.503Z,96.53
2019-02-06T19:07:23.839Z,88.47
2019-02-06T19:09:55.380Z,169.63
2019-02-06T19:12:26.893Z,392.87
2019-02-06T19:14:58.786Z,215.17
2019-02-06T19:17:27.418Z,263.53
2019-02-06T19:19:57.642Z,210.10
2019-02-06T19:22:27.448Z,330.47
2019-02-06T19:24:57.361Z,274.67
2019-02-06T19:27:27.911Z,228.73
2019-02-06T19:29:57.374Z,318.30
2019-02-06T19:32:27.992Z,360.77
2019-02-06T19:34:57.480Z,318.10
2019-02-06T19:37:27.282Z,246.77
2019-02-06T19:39:56.681Z,274.37
2019-02-06T19:42:26.046Z,265.40
2019-02-06T19:44:55.527Z,186.60
2019-02-06T19:47:28.607Z,228.73
2019-02-06T19:49:57.509Z,220.67
2019-02-06T19:52:28.138Z,244.13
2019-02-06T19:55:00.362Z,178.80
2019-02-06T19:57:31.510Z,132.10
2019-02-06T20:00:00.961Z,146.10
2019-02-06T20:02:30.934Z,202.40
2019-02-06T20:05:00.401Z,213.73
2019-02-06T20:07:31.189Z,192.27
2019-02-06T20:10:00.903Z,191.30
2019-02-06T20:12:30.330Z,198.87
2019-02-06T20:14:59.711Z,203.90
2019-02-06T20:17:29.437Z,201.60
2019-02-06T20:19:59.083Z,178.60
2019-02-06T20:22:28.564Z,184.13
2019-02-06T20:24:59.493Z,181.60
2019-02-06T20:27:29.176Z,245.63
2019-02-06T20:29:58.960Z,340.00
2019-02-06T20:32:28.344Z,286.77
2019-02-06T20:34:57.727Z,426.03
2019-02-06T20:37:27.202Z,280.10
2019-02-06T20:39:56.621Z,197.67
2019-02-06T20:42:26.097Z,183.27
2019-02-06T20:44:55.719Z,221.03
2019-02-06T20:47:26.686Z,181.73
2019-02-06T20:49:56.092Z,179.53
2019-02-06T20:52:27.233Z,187.57
2019-02-06T20:54:56.638Z,203.13
2019-02-06T20:57:26.094Z,192.43
2019-02-06T20:59:58.313Z,273.40
2019-02-06T21:02:29.484Z,246.17
2019-02-06T21:05:00.463Z,204.13
2019-02-06T21:07:29.978Z,201.33
2019-02-06T21:09:59.516Z,213.37
2019-02-06T21:12:28.966Z,207.40
2019-02-06T21:15:01.065Z,214.70
2019-02-06T21:17:30.616Z,186.23
2019-02-06T21:20:00.098Z,193.50
2019-02-06T21:22:30.735Z,172.07
2019-02-06T21:25:00.250Z,177.53
2019-02-06T21:27:32.318Z,164.57
2019-02-06T21:30:01.744Z,177.03
2019-02-06T21:32:31.219Z,169.03
2019-02-06T21:35:01.460Z,165.30
2019-02-06T21:37:32.401Z,162.90
2019-02-06T21:40:01.953Z,149.87
2019-02-06T21:42:31.510Z,156.63
2019-02-06T21:45:01.402Z,195.03
2019-02-06T21:47:31.972Z,161.27
2019-02-06T21:50:01.436Z,148.93
2019-02-06T21:52:30.948Z,144.47
2019-02-06T21:55:00.462Z,145.20
2019-02-06T21:57:30.304Z,149.50
2019-02-06T21:59:59.860Z,140.90
2019-02-06T22:02:31.614Z,136.37
2019-02-06T22:05:01.138Z,130.50
2019-02-06T22:07:30.936Z,136.83
2019-02-06T22:10:00.778Z,130.40
2019-02-06T22:12:32.246Z,129.10
2019-02-06T22:15:01.738Z,128.33
2019-02-06T22:17:31.605Z,107.43
2019-02-06T22:20:01.049Z,125.00
2019-02-06T22:22:30.476Z,119.40
2019-02-06T22:25:00.679Z,129.20
2019-02-06T22:27:31.738Z,117.50
2019-02-06T22:30:01.534Z,126.47
2019-02-06T22:32:30.915Z,106.80
2019-02-06T22:39:24.339Z,126.27
2019-02-06T22:41:53.794Z,114.17
2019-02-06T22:44:23.167Z,117.23
2019-02-06T22:46:54.067Z,122.57
2019-02-06T22:49:23.439Z,125.70
2019-02-06T22:51:52.861Z,99.30
2019-02-06T22:54:22.355Z,98.07
2019-02-06T22:56:51.786Z,109.70
2019-02-06T22:59:21.251Z,102.40
2019-02-06T23:01:56.723Z,97.10
2019-02-06T23:04:26.215Z,104.60
2019-02-06T23:06:55.608Z,103.23
2019-02-06T23:09:25.036Z,99.33
2019-02-06T23:11:54.393Z,114.83
2019-02-06T23:14:24.203Z,108.53
2019-02-06T23:16:53.561Z,99.33
2019-02-06T23:19:23.044Z,94.53
2019-02-06T23:21:52.417Z,95.37
2019-02-06T23:24:21.902Z,97.33
2019-02-06T23:26:51.301Z,95.13
2019-02-06T23:29:20.989Z,98.57
2019-02-06T23:31:50.396Z,84.47
2019-02-06T23:34:20.155Z,93.10
2019-02-06T23:36:49.463Z,90.57
2019-02-06T23:39:20.744Z,87.30
2019-02-06T23:41:50.057Z,85.53
2019-02-06T23:44:28.600Z,90.23
2019-02-06T23:46:50.421Z,85.13
2019-02-06T23:49:19.868Z,85.80
2019-02-06T23:51:49.228Z,88.60
2019-02-06T23:54:18.594Z,84.77
2019-02-06T23:56:47.991Z,103.90
2019-02-06T23:59:17.517Z,89.50
